Time;durP1;ratioP1;P1;durP2;ratioP2;P2;SDS_P1;SDS_P2;PMS_P1;PMS_P2;Temp;Humidity;BMP_temperature;BMP_pressure;BME280_temperature;BME280_humidity;BME280_pressure;Samples;Min_cycle;Max_cycle;Signal;HPM_P1;HPM_P2
2023/08/29 00:00:33;;;;;;;;;;;;;;;29.72;43.12;100679.27;106598;1270;22511;-50
2023/08/29 00:03:03;;;;;;;;;;;;;;;29.72;43.26;100674.80;106804;1265;25393;-55
2023/08/29 00:05:30;;;;;;;;;;;;;;;29.71;43.51;100672.73;106784;1269;25522;-50
2023/08/29 00:07:57;;;;;;;;;;;;;;;29.71;43.59;100676.14;106806;1269;25306;-54
2023/08/29 00:10:24;;;;;;;;;;;;;;;29.71;43.84;100674.16;106605;1270;25295;-53
2023/08/29 00:12:51;;;;;;;;;;;;;;;29.72;44.02;100676.38;106793;1270;25352;-54
2023/08/29 00:15:18;;;;;;;;;;;;;;;29.72;44.15;100675.84;106804;1273;22628;-51
2023/08/29 00:17:45;;;;;;;;;;;;;;;29.72;44.43;100674.06;106895;1269;25454;-52
2023/08/29 00:20:12;;;;;;;;;;;;;;;29.71;44.71;100669.48;106824;1270;25311;-52
2023/08/29 00:22:39;;;;;;;;;;;;;;;29.71;44.99;100666.42;106690;1272;25327;-56
2023/08/29 00:25:07;;;;;;;;;;;;;;;29.72;45.49;100669.24;106777;1270;25314;-51
2023/08/29 00:27:34;;;;;;;;;;;;;;;29.72;46.26;100664.27;106810;1270;25350;-50
2023/08/29 00:30:01;;;;;;;;;;;;;;;29.75;46.58;100663.39;106743;1267;25343;-50
2023/08/29 00:32:28;;;;;;;;;;;;;;;29.78;47.13;100661.00;106837;1272;25389;-53
2023/08/29 00:34:55;;;;;;;;;;;;;;;29.82;47.57;100655.38;106470;1269;365075;-50
2023/08/29 00:37:22;;;;;;;;;;;;;;;29.85;47.92;100655.42;106751;1274;25316;-52
2023/08/29 00:39:49;;;;;;;;;;;;;;;29.88;47.56;100651.84;106828;1270;25373;-50
2023/08/29 00:42:16;;;;;;;;;;;;;;;29.91;47.23;100650.95;106875;1273;23199;-51
2023/08/29 00:44:43;;;;;;;;;;;;;;;29.95;47.09;100650.06;106849;1260;25389;-50
2023/08/29 00:47:10;;;;;;;;;;;;;;;29.97;46.82;100646.96;106768;1269;25376;-53
2023/08/29 00:49:37;;;;;;;;;;;;;;;30.00;46.40;100649.19;106838;1271;25334;-51
2023/08/29 00:52:05;;;;;;;;;;;;;;;30.02;46.25;100647.83;106879;1265;25321;-51
2023/08/29 00:54:32;;;;;;;;;;;;;;;30.05;46.04;100654.17;106642;1263;25312;-51
2023/08/29 00:56:59;;;;;;;;;;;;;;;30.08;45.42;100657.64;106760;1270;22506;-53
2023/08/29 00:59:26;;;;;;;;;;;;;;;30.10;45.35;100657.39;106698;1269;22619;-51
2023/08/29 01:01:52;;;;;;;;;;;;;;;30.13;44.97;100656.19;106813;1275;24352;-51
2023/08/29 01:04:19;;;;;;;;;;;;;;;30.15;44.42;100657.08;106696;1275;25466;-57
2023/08/29 01:06:46;;;;;;;;;;;;;;;30.17;44.17;100651.98;106819;1267;25493;-51
2023/08/29 01:09:13;;;;;;;;;;;;;;;30.18;43.93;100650.25;106865;1270;24298;-51
2023/08/29 01:11:42;;;;;;;;;;;;;;;30.19;43.36;100646.98;106817;1277;25465;-51
2023/08/29 01:14:42;;;;;;;;;;;;;;;30.18;42.73;100645.80;106810;1271;24218;-56
2023/08/29 01:17:16;;;;;;;;;;;;;;;30.17;43.06;100642.69;106380;1280;25306;-49
2023/08/29 01:19:43;;;;;;;;;;;;;;;30.16;43.31;100643.69;106379;1277;25312;-50
2023/08/29 01:22:13;;;;;;;;;;;;;;;30.15;43.58;100640.97;106400;1267;22514;-50
2023/08/29 01:24:51;;;;;;;;;;;;;;;30.13;43.64;100635.79;106360;1265;25311;-51
2023/08/29 01:27:19;;;;;;;;;;;;;;;30.10;42.98;100632.30;106326;1276;25319;-55
2023/08/29 01:29:48;;;;;;;;;;;;;;;30.08;42.57;100626.31;106396;1278;25377;-50
2023/08/29 01:32:15;;;;;;;;;;;;;;;30.06;42.00;100628.67;106436;1276;25368;-50
2023/08/29 01:34:43;;;;;;;;;;;;;;;30.04;41.75;100626.59;106361;1274;25403;-53
2023/08/29 01:37:10;;;;;;;;;;;;;;;30.03;42.08;100629.75;106355;1273;25315;-51
2023/08/29 01:39:37;;;;;;;;;;;;;;;30.01;42.80;100630.63;106232;1281;25296;-51
2023/08/29 01:42:05;;;;;;;;;;;;;;;30.00;43.22;100632.91;106391;1282;25329;-50
2023/08/29 01:44:31;;;;;;;;;;;;;;;29.98;43.23;100633.65;106448;1266;25621;-56
2023/08/29 01:47:00;;;;;;;;;;;;;;;29.95;43.01;100629.98;106417;1278;22687;-52
2023/08/29 01:49:27;;;;;;;;;;;;;;;29.93;43.08;100626.48;106366;1277;25309;-51
2023/08/29 01:51:54;;;;;;;;;;;;;;;29.91;43.10;100626.86;106390;1276;25401;-51
2023/08/29 01:54:21;;;;;;;;;;;;;;;29.90;43.20;100623.58;106874;1270;25348;-52
2023/08/29 01:56:48;;;;;;;;;;;;;;;29.88;43.70;100625.19;106727;1270;25383;-51
2023/08/29 01:59:14;;;;;;;;;;;;;;;29.85;44.21;100624.27;106828;1268;22507;-51
2023/08/29 02:01:41;;;;;;;;;;;;;;;29.83;44.35;100628.04;106670;1260;25378;-50
2023/08/29 02:04:08;;;;;;;;;;;;;;;29.81;44.40;100633.31;106792;1267;25334;-49
2023/08/29 02:06:36;;;;;;;;;;;;;;;29.77;44.57;100634.02;106883;1257;25315;-51
2023/08/29 02:09:03;;;;;;;;;;;;;;;29.74;44.65;100638.62;106747;1261;25411;-50
2023/08/29 02:11:30;;;;;;;;;;;;;;;29.72;44.71;100642.84;106672;1276;25441;-50
2023/08/29 02:13:58;;;;;;;;;;;;;;;29.68;45.16;100642.14;106817;1270;25395;-51
2023/08/29 02:16:25;;;;;;;;;;;;;;;29.65;45.23;100642.78;106751;1277;24188;-51
2023/08/29 02:18:52;;;;;;;;;;;;;;;29.63;45.30;100641.42;106714;1270;25415;-52
2023/08/29 02:21:19;;;;;;;;;;;;;;;29.61;45.38;100639.30;106799;1270;25330;-50
2023/08/29 02:23:46;;;;;;;;;;;;;;;29.58;45.12;100638.30;106727;1274;25341;-50
2023/08/29 02:26:13;;;;;;;;;;;;;;;29.57;45.23;100633.48;106375;1261;25444;-54
2023/08/29 02:28:41;;;;;;;;;;;;;;;29.55;45.51;100635.58;106617;1272;25327;-50
2023/08/29 02:31:08;;;;;;;;;;;;;;;29.54;45.67;100634.70;106690;1257;25783;-51
2023/08/29 02:33:37;;;;;;;;;;;;;;;29.52;45.75;100634.70;106638;1273;26484;-49
2023/08/29 02:36:04;;;;;;;;;;;;;;;29.51;45.87;100633.20;106441;1261;25452;-50
2023/08/29 02:38:32;;;;;;;;;;;;;;;29.49;45.92;100632.29;106369;1261;25411;-50
2023/08/29 02:40:59;;;;;;;;;;;;;;;29.48;45.91;100631.55;106540;1275;25462;-53
2023/08/29 02:43:26;;;;;;;;;;;;;;;29.47;45.93;100636.30;106725;1257;25459;-56
2023/08/29 02:45:53;;;;;;;;;;;;;;;29.45;46.19;100637.33;106606;1270;25461;-50
2023/08/29 02:48:20;;;;;;;;;;;;;;;29.44;46.21;100635.67;106408;1273;22648;-50
2023/08/29 02:50:48;;;;;;;;;;;;;;;29.44;46.17;100640.92;106606;1270;25453;-51
2023/08/29 02:53:19;;;;;;;;;;;;;;;29.42;45.85;100638.91;106662;1271;25351;-49
2023/08/29 02:55:46;;;;;;;;;;;;;;;29.41;45.67;100642.27;106355;1273;25308;-50
2023/08/29 02:58:13;;;;;;;;;;;;;;;29.40;45.43;100644.71;106588;1271;25398;-50
2023/08/29 03:00:40;;;;;;;;;;;;;;;29.37;45.41;100645.67;106821;1258;25305;-55
2023/08/29 03:03:07;;;;;;;;;;;;;;;29.35;45.43;100650.58;106779;1267;26178;-51
2023/08/29 03:05:34;;;;;;;;;;;;;;;29.31;45.37;100648.98;106783;1270;25490;-49
2023/08/29 03:08:03;;;;;;;;;;;;;;;29.30;45.28;100645.21;106696;1270;22670;-50
2023/08/29 03:10:36;;;;;;;;;;;;;;;29.29;45.37;100642.31;106769;1267;25380;-53
2023/08/29 03:13:02;;;;;;;;;;;;;;;29.28;45.48;100640.40;106741;1267;25417;-53
2023/08/29 03:15:33;;;;;;;;;;;;;;;29.27;45.94;100642.84;106722;1268;25316;-49
2023/08/29 03:18:00;;;;;;;;;;;;;;;29.27;46.83;100647.53;106747;1258;25344;-50
2023/08/29 03:20:28;;;;;;;;;;;;;;;29.26;47.59;100641.33;106885;1267;25341;-51
2023/08/29 03:22:54;;;;;;;;;;;;;;;29.26;48.19;100641.53;106795;1270;22516;-51
2023/08/29 03:25:22;;;;;;;;;;;;;;;29.25;48.42;100648.38;106715;1273;25328;-50
2023/08/29 03:27:49;;;;;;;;;;;;;;;29.24;48.56;100650.83;106742;1270;25340;-49
2023/08/29 03:30:16;;;;;;;;;;;;;;;29.22;48.61;100656.68;106610;1274;25343;-50
2023/08/29 03:32:49;;;;;;;;;;;;;;;29.21;48.91;100656.13;106840;1270;25344;-50
2023/08/29 03:35:16;;;;;;;;;;;;;;;29.21;49.08;100661.83;106886;1269;25338;-50
2023/08/29 03:37:43;;;;;;;;;;;;;;;29.22;48.71;100657.84;106620;1270;25347;-53
2023/08/29 03:40:10;;;;;;;;;;;;;;;29.23;48.76;100659.55;106755;1263;24206;-52
2023/08/29 03:42:39;;;;;;;;;;;;;;;29.23;49.60;100662.52;106843;1263;24321;-50
2023/08/29 03:45:08;;;;;;;;;;;;;;;29.25;49.35;100660.55;106754;1268;23889;-51
2023/08/29 03:47:36;;;;;;;;;;;;;;;29.27;49.19;100660.69;106815;1260;22981;-53
2023/08/29 03:50:03;;;;;;;;;;;;;;;29.32;48.92;100664.15;106807;1259;22515;-53
2023/08/29 03:52:31;;;;;;;;;;;;;;;29.36;48.74;100666.88;106478;1269;25305;-56
2023/08/29 03:54:58;;;;;;;;;;;;;;;29.41;48.67;100669.65;106679;1270;25395;-52
2023/08/29 03:57:26;;;;;;;;;;;;;;;29.45;48.27;100671.86;106680;1273;25305;-51
2023/08/29 03:59:53;;;;;;;;;;;;;;;29.50;48.33;100673.65;106703;1263;22523;-51
2023/08/29 04:02:20;;;;;;;;;;;;;;;29.55;48.27;100673.32;106664;1267;25369;-54
2023/08/29 04:04:50;;;;;;;;;;;;;;;29.58;48.17;100674.21;106557;1257;25343;-52
2023/08/29 04:07:18;;;;;;;;;;;;;;;29.61;48.10;100676.65;106546;1275;22511;-52
2023/08/29 04:09:45;;;;;;;;;;;;;;;29.62;48.07;100680.44;106746;1269;25347;-50
2023/08/29 04:12:12;;;;;;;;;;;;;;;29.63;48.11;100683.04;106724;1272;25417;-51
2023/08/29 04:14:39;;;;;;;;;;;;;;;29.62;48.14;100681.14;106728;1273;25333;-50
2023/08/29 04:17:06;;;;;;;;;;;;;;;29.61;48.11;100677.55;106598;1257;25334;-50
2023/08/29 04:19:33;;;;;;;;;;;;;;;29.60;47.73;100673.59;106852;1267;25350;-52
2023/08/29 04:22:00;;;;;;;;;;;;;;;29.56;47.50;100668.53;106729;1256;25350;-50
2023/08/29 04:24:29;;;;;;;;;;;;;;;29.53;47.36;100671.79;106845;1267;25312;-53
2023/08/29 04:26:56;;;;;;;;;;;;;;;29.49;47.30;100673.81;106760;1270;25392;-52
2023/08/29 04:29:23;;;;;;;;;;;;;;;29.47;47.15;100678.13;106690;1270;25312;-53
2023/08/29 04:31:50;;;;;;;;;;;;;;;29.46;47.14;100676.80;106619;1270;25334;-52
2023/08/29 04:34:17;;;;;;;;;;;;;;;29.45;46.93;100672.38;106611;1272;23354;-51
2023/08/29 04:36:45;;;;;;;;;;;;;;;29.45;47.09;100673.32;106691;1269;22516;-52
2023/08/29 04:39:12;;;;;;;;;;;;;;;29.45;47.41;100675.06;106842;1262;24338;-50
2023/08/29 04:41:39;;;;;;;;;;;;;;;29.46;47.24;100675.36;106882;1260;25503;-50
2023/08/29 04:44:06;;;;;;;;;;;;;;;29.45;47.63;100676.16;106898;1270;22511;-49
2023/08/29 04:46:33;;;;;;;;;;;;;;;29.44;48.17;100673.04;106735;1256;25337;-51
2023/08/29 04:48:59;;;;;;;;;;;;;;;29.44;48.93;100677.87;106781;1269;25309;-50
2023/08/29 04:51:26;;;;;;;;;;;;;;;29.45;49.53;100678.34;106751;1261;22662;-51
2023/08/29 04:53:53;;;;;;;;;;;;;;;29.46;50.09;100677.30;106726;1271;25386;-52
2023/08/29 04:56:20;;;;;;;;;;;;;;;29.48;50.29;100676.59;106870;1261;25393;-53
2023/08/29 04:58:47;;;;;;;;;;;;;;;29.50;50.19;100676.36;106651;1270;22519;-52
2023/08/29 05:01:14;;;;;;;;;;;;;;;29.54;50.43;100677.23;106762;1270;25493;-49
2023/08/29 05:03:41;;;;;;;;;;;;;;;29.57;50.56;100672.60;106653;1260;25386;-52
2023/08/29 05:06:09;;;;;;;;;;;;;;;29.62;50.62;100667.30;106311;1271;22656;-53
2023/08/29 05:08:36;;;;;;;;;;;;;;;29.65;50.65;100666.95;106647;1267;25372;-50
2023/08/29 05:11:04;;;;;;;;;;;;;;;29.68;50.70;100661.41;106579;1259;23974;-50
2023/08/29 05:13:32;;;;;;;;;;;;;;;29.72;50.68;100661.17;106378;1273;25469;-51
2023/08/29 05:15:59;;;;;;;;;;;;;;;29.76;50.56;100654.71;106623;1271;25577;-50
2023/08/29 05:18:27;;;;;;;;;;;;;;;29.81;50.33;100664.39;106643;1270;22522;-50
2023/08/29 05:20:56;;;;;;;;;;;;;;;29.84;50.21;100667.98;106645;1258;25603;-51
2023/08/29 05:23:23;;;;;;;;;;;;;;;29.89;49.97;100666.27;106730;1271;25451;-51
2023/08/29 05:25:49;;;;;;;;;;;;;;;29.94;49.97;100668.63;106651;1267;25223;-50
2023/08/29 05:28:16;;;;;;;;;;;;;;;29.98;49.79;100670.27;106612;1270;25379;-50
2023/08/29 05:30:43;;;;;;;;;;;;;;;30.02;49.61;100666.46;106362;1273;25310;-50
2023/08/29 05:33:11;;;;;;;;;;;;;;;30.06;49.66;100666.56;106617;1266;22506;-52
2023/08/29 05:35:38;;;;;;;;;;;;;;;30.10;49.48;100668.86;106776;1265;25205;-50
2023/08/29 05:38:05;;;;;;;;;;;;;;;30.13;48.91;100670.35;106906;1267;25343;-52
2023/08/29 05:40:33;;;;;;;;;;;;;;;30.15;48.39;100669.55;106746;1264;25480;-53
2023/08/29 05:43:01;;;;;;;;;;;;;;;30.18;47.93;100670.70;106823;1261;25334;-51
2023/08/29 05:45:28;;;;;;;;;;;;;;;30.20;46.06;100672.19;106823;1267;25430;-52
2023/08/29 05:47:55;;;;;;;;;;;;;;;30.23;45.07;100676.36;106791;1268;25319;-50
2023/08/29 05:50:22;;;;;;;;;;;;;;;30.25;44.62;100676.30;106812;1267;25325;-50
2023/08/29 05:52:49;;;;;;;;;;;;;;;30.27;44.71;100679.31;106828;1269;25307;-51
2023/08/29 05:55:17;;;;;;;;;;;;;;;30.31;44.63;100678.48;106798;1270;25329;-50
2023/08/29 05:57:44;;;;;;;;;;;;;;;30.33;44.52;100683.37;106807;1269;25427;-53
2023/08/29 06:00:13;;;;;;;;;;;;;;;30.37;44.17;100676.50;106834;1267;25351;-50
2023/08/29 06:02:40;;;;;;;;;;;;;;;30.43;43.86;100676.58;106624;1261;22615;-52
2023/08/29 06:05:07;;;;;;;;;;;;;;;30.51;43.88;100681.61;106818;1267;25489;-52
2023/08/29 06:07:35;;;;;;;;;;;;;;;30.59;43.97;100682.60;106836;1258;25315;-53
2023/08/29 06:10:02;;;;;;;;;;;;;;;30.66;44.04;100689.23;106679;1263;25460;-51
2023/08/29 06:12:29;;;;;;;;;;;;;;;30.73;43.78;100689.88;106823;1259;25347;-52
2023/08/29 06:14:56;;;;;;;;;;;;;;;30.82;44.06;100690.56;106795;1259;25385;-56
2023/08/29 06:17:23;;;;;;;;;;;;;;;30.89;43.97;100693.50;106762;1257;25431;-53
2023/08/29 06:19:50;;;;;;;;;;;;;;;30.99;44.38;100699.77;106777;1255;25205;-50
2023/08/29 06:22:17;;;;;;;;;;;;;;;31.13;44.55;100701.29;106666;1259;25341;-51
2023/08/29 06:24:44;;;;;;;;;;;;;;;31.32;44.51;100704.04;106728;1265;25372;-53
2023/08/29 06:27:11;;;;;;;;;;;;;;;31.50;44.40;100701.63;106834;1259;25361;-51
2023/08/29 06:29:38;;;;;;;;;;;;;;;31.63;44.45;100696.27;106821;1267;25396;-50
2023/08/29 06:32:05;;;;;;;;;;;;;;;31.73;44.74;100695.49;106869;1260;22892;-53
2023/08/29 06:34:32;;;;;;;;;;;;;;;31.81;45.15;100697.83;106651;1270;22648;-51
2023/08/29 06:36:59;;;;;;;;;;;;;;;31.87;45.35;100701.66;106777;1265;25343;-50
2023/08/29 06:39:26;;;;;;;;;;;;;;;31.91;45.83;100702.95;106697;1256;25413;-51
2023/08/29 06:41:53;;;;;;;;;;;;;;;31.97;46.88;100707.83;106778;1270;25558;-52
2023/08/29 06:44:20;;;;;;;;;;;;;;;32.04;47.62;100711.59;106765;1264;25344;-50
2023/08/29 06:46:48;;;;;;;;;;;;;;;32.09;48.61;100711.23;106750;1269;25455;-51
2023/08/29 06:49:15;;;;;;;;;;;;;;;32.15;50.42;100705.86;106812;1266;25315;-51
2023/08/29 06:51:42;;;;;;;;;;;;;;;32.23;52.43;100707.08;106733;1270;25330;-52
2023/08/29 06:54:09;;;;;;;;;;;;;;;32.30;53.62;100708.07;106747;1263;25337;-50
2023/08/29 06:56:36;;;;;;;;;;;;;;;32.38;54.32;100711.83;106645;1269;25324;-54
2023/08/29 06:59:03;;;;;;;;;;;;;;;32.42;54.87;100714.25;106792;1267;25344;-51
2023/08/29 07:01:30;;;;;;;;;;;;;;;32.48;54.90;100715.92;106845;1259;25454;-51
2023/08/29 07:03:57;;;;;;;;;;;;;;;32.54;54.68;100714.09;106847;1256;25466;-52
2023/08/29 07:06:23;;;;;;;;;;;;;;;32.61;54.94;100724.45;106818;1267;25316;-51
2023/08/29 07:08:51;;;;;;;;;;;;;;;32.62;55.40;100719.64;106561;1257;25316;-50
2023/08/29 07:11:18;;;;;;;;;;;;;;;32.73;55.31;100719.58;106542;1267;25489;-50
2023/08/29 07:13:45;;;;;;;;;;;;;;;32.84;55.19;100720.13;106810;1266;25334;-50
2023/08/29 07:16:11;;;;;;;;;;;;;;;32.99;54.78;100720.20;106715;1267;25489;-52
2023/08/29 07:18:39;;;;;;;;;;;;;;;33.21;54.65;100724.80;106758;1263;25341;-51
2023/08/29 07:21:07;;;;;;;;;;;;;;;33.48;54.18;100725.14;106797;1260;25344;-51
2023/08/29 07:23:34;;;;;;;;;;;;;;;33.79;53.50;100725.23;106869;1266;25351;-57
2023/08/29 07:26:01;;;;;;;;;;;;;;;34.10;52.92;100724.93;106812;1270;25316;-53
2023/08/29 07:28:29;;;;;;;;;;;;;;;34.38;52.27;100723.93;106677;1270;23241;-50
2023/08/29 07:30:57;;;;;;;;;;;;;;;34.62;51.71;100723.92;106589;1271;25468;-54
2023/08/29 07:33:25;;;;;;;;;;;;;;;34.78;50.98;100728.33;106881;1272;25330;-50
2023/08/29 07:35:52;;;;;;;;;;;;;;;34.88;50.62;100729.41;106808;1260;25466;-51
2023/08/29 07:38:19;;;;;;;;;;;;;;;34.95;50.57;100729.35;106750;1266;25327;-50
2023/08/29 07:40:46;;;;;;;;;;;;;;;34.97;50.58;100730.54;106839;1259;25408;-51
2023/08/29 07:43:13;;;;;;;;;;;;;;;34.94;50.73;100732.95;106778;1256;25377;-51
2023/08/29 07:45:41;;;;;;;;;;;;;;;34.88;50.78;100735.34;106777;1267;25344;-50
2023/08/29 07:48:08;;;;;;;;;;;;;;;34.81;51.08;100738.39;106696;1267;25429;-51
2023/08/29 07:50:35;;;;;;;;;;;;;;;34.73;51.37;100739.06;106631;1275;25456;-57
2023/08/29 07:53:02;;;;;;;;;;;;;;;34.65;51.65;100738.02;106767;1269;25315;-52
2023/08/29 07:55:29;;;;;;;;;;;;;;;34.60;51.82;100736.41;106824;1269;25425;-52
2023/08/29 07:57:56;;;;;;;;;;;;;;;34.54;52.08;100734.83;106763;1256;25363;-55
2023/08/29 08:00:24;;;;;;;;;;;;;;;34.45;52.17;100733.52;106796;1269;25324;-59
2023/08/29 08:02:51;;;;;;;;;;;;;;;34.35;52.42;100737.21;106770;1270;25306;-59
2023/08/29 08:05:18;;;;;;;;;;;;;;;34.29;52.48;100741.79;106686;1262;25359;-53
2023/08/29 08:07:45;;;;;;;;;;;;;;;34.24;52.59;100743.33;106649;1265;25344;-52
2023/08/29 08:10:13;;;;;;;;;;;;;;;34.18;52.67;100741.92;106933;1265;25223;-51
2023/08/29 08:12:41;;;;;;;;;;;;;;;34.13;52.98;100743.39;106908;1267;22564;-53
2023/08/29 08:15:08;;;;;;;;;;;;;;;34.11;53.12;100745.42;106720;1261;25316;-51
2023/08/29 08:17:36;;;;;;;;;;;;;;;34.10;53.08;100745.74;106657;1259;25255;-51
2023/08/29 08:20:07;;;;;;;;;;;;;;;34.09;53.18;100747.48;106770;1273;22629;-51
2023/08/29 08:22:35;;;;;;;;;;;;;;;34.09;53.39;100747.75;106802;1268;24192;-51
2023/08/29 08:25:02;;;;;;;;;;;;;;;34.10;53.38;100746.36;106819;1260;25457;-51
2023/08/29 08:27:29;;;;;;;;;;;;;;;34.12;53.16;100747.19;106721;1260;25337;-51
2023/08/29 08:29:57;;;;;;;;;;;;;;;34.13;53.06;100750.41;106940;1260;25334;-51
2023/08/29 08:32:24;;;;;;;;;;;;;;;34.13;52.91;100752.90;106767;1263;25350;-51
2023/08/29 08:34:51;;;;;;;;;;;;;;;34.12;52.99;100757.08;106831;1267;25465;-52
2023/08/29 08:37:18;;;;;;;;;;;;;;;34.10;53.30;100756.17;106746;1260;25344;-51
2023/08/29 08:39:45;;;;;;;;;;;;;;;34.10;53.32;100759.62;106822;1256;25334;-51
2023/08/29 08:42:12;;;;;;;;;;;;;;;34.09;53.40;100757.56;106727;1267;25331;-51
2023/08/29 08:44:39;;;;;;;;;;;;;;;34.08;53.40;100757.35;106785;1269;25417;-52
2023/08/29 08:47:06;;;;;;;;;;;;;;;34.08;53.27;100757.36;106709;1265;25364;-52
2023/08/29 08:49:33;;;;;;;;;;;;;;;34.07;53.32;100759.80;106759;1269;24197;-52
2023/08/29 08:52:00;;;;;;;;;;;;;;;34.06;53.33;100760.98;106793;1267;25316;-51
2023/08/29 08:54:27;;;;;;;;;;;;;;;34.05;53.44;100758.22;106681;1262;22527;-52
2023/08/29 08:56:57;;;;;;;;;;;;;;;34.06;53.39;100758.10;106704;1267;24216;-52
2023/08/29 08:59:24;;;;;;;;;;;;;;;34.10;53.09;100754.60;106517;1271;24294;-51
2023/08/29 09:01:54;;;;;;;;;;;;;;;34.12;52.96;100752.34;106888;1257;25344;-51
2023/08/29 09:04:22;;;;;;;;;;;;;;;34.14;52.94;100747.93;106881;1256;22636;-51
2023/08/29 09:06:49;;;;;;;;;;;;;;;34.18;52.79;100747.62;106884;1265;22541;-51
2023/08/29 09:09:17;;;;;;;;;;;;;;;34.24;52.48;100744.25;106809;1260;25386;-51
2023/08/29 09:11:44;;;;;;;;;;;;;;;34.29;52.07;100748.07;106930;1256;25343;-56
2023/08/29 09:14:11;;;;;;;;;;;;;;;34.36;51.63;100754.98;106820;1259;25344;-50
2023/08/29 09:16:40;;;;;;;;;;;;;;;34.41;51.46;100755.67;106718;1259;25334;-52
2023/08/29 09:19:07;;;;;;;;;;;;;;;34.43;51.41;100752.49;106840;1259;24339;-51
2023/08/29 09:21:35;;;;;;;;;;;;;;;34.47;51.21;100752.90;106830;1259;25341;-51
2023/08/29 09:24:04;;;;;;;;;;;;;;;34.53;51.09;100752.79;106817;1270;23633;-52
2023/08/29 09:26:34;;;;;;;;;;;;;;;34.56;51.00;100756.82;106698;1278;22787;-52
2023/08/29 09:29:15;;;;;;;;;;;;;;;34.58;51.08;100758.44;106788;1274;24206;-51
2023/08/29 09:31:41;;;;;;;;;;;;;;;34.61;50.63;100759.50;106732;1265;22520;-51
2023/08/29 09:34:09;;;;;;;;;;;;;;;34.63;50.52;100763.44;106790;1270;25396;-57
2023/08/29 09:36:36;;;;;;;;;;;;;;;34.64;50.35;100763.04;106739;1259;25337;-51
2023/08/29 09:39:03;;;;;;;;;;;;;;;34.66;50.23;100765.55;106805;1259;25338;-51
2023/08/29 09:41:30;;;;;;;;;;;;;;;34.66;50.24;100763.13;106836;1256;25465;-56
2023/08/29 09:43:57;;;;;;;;;;;;;;;34.66;50.35;100766.02;106761;1267;25353;-51
2023/08/29 09:46:25;;;;;;;;;;;;;;;34.65;50.25;100762.42;106778;1272;25478;-51
2023/08/29 09:48:56;;;;;;;;;;;;;;;34.64;50.40;100758.42;106855;1256;25888;-52
2023/08/29 09:51:24;;;;;;;;;;;;;;;34.61;50.63;100756.48;106840;1259;25450;-51
2023/08/29 09:53:51;;;;;;;;;;;;;;;34.57;50.79;100754.73;106790;1259;25401;-51
2023/08/29 09:56:19;;;;;;;;;;;;;;;34.55;50.76;100752.55;106665;1262;25393;-52
2023/08/29 09:58:46;;;;;;;;;;;;;;;34.52;50.83;100753.40;106651;1262;25498;-55
2023/08/29 10:01:13;;;;;;;;;;;;;;;34.50;51.02;100756.16;106625;1278;25462;-51
2023/08/29 10:03:40;;;;;;;;;;;;;;;34.49;51.46;100758.84;106381;1260;25348;-52
2023/08/29 10:06:07;;;;;;;;;;;;;;;34.50;51.28;100759.48;106378;1271;25380;-50
2023/08/29 10:08:55;;;;;;;;;;;;;;;34.51;51.08;100761.48;106240;1267;24096;-51
2023/08/29 10:11:22;;;;;;;;;;;;;;;34.53;51.22;100761.23;106637;1262;25323;-54
2023/08/29 10:13:48;;;;;;;;;;;;;;;34.55;50.97;100762.01;106606;1259;25393;-51
2023/08/29 10:16:15;;;;;;;;;;;;;;;34.57;51.05;100760.84;106651;1266;25312;-50
2023/08/29 10:18:43;;;;;;;;;;;;;;;34.59;51.13;100763.69;106659;1262;25385;-51
2023/08/29 10:21:09;;;;;;;;;;;;;;;34.60;51.13;100765.58;106710;1262;25389;-50
2023/08/29 10:23:37;;;;;;;;;;;;;;;34.61;50.75;100766.20;106782;1270;25309;-51
2023/08/29 10:26:03;;;;;;;;;;;;;;;34.63;50.74;100771.14;106751;1272;25487;-50
2023/08/29 10:28:30;;;;;;;;;;;;;;;34.65;50.94;100771.08;106754;1270;25325;-51
2023/08/29 10:30:59;;;;;;;;;;;;;;;34.66;50.80;100772.52;106697;1256;25309;-51
2023/08/29 10:33:26;;;;;;;;;;;;;;;34.69;50.84;100773.45;106740;1270;25325;-51
2023/08/29 10:35:53;;;;;;;;;;;;;;;34.71;50.98;100772.83;106850;1254;25396;-52
2023/08/29 10:38:20;;;;;;;;;;;;;;;34.72;50.83;100771.59;106735;1268;25306;-49
2023/08/29 10:40:47;;;;;;;;;;;;;;;34.72;50.88;100771.67;106491;1262;25315;-50
2023/08/29 10:43:21;;;;;;;;;;;;;;;34.72;50.83;100771.30;106741;1259;25395;-51
2023/08/29 10:45:48;;;;;;;;;;;;;;;34.72;51.01;100769.13;106713;1257;23848;-51
2023/08/29 10:48:15;;;;;;;;;;;;;;;34.71;51.30;100768.37;106778;1259;23146;-52
2023/08/29 10:50:46;;;;;;;;;;;;;;;34.70;51.28;100773.11;106794;1269;22775;-51
2023/08/29 10:53:17;;;;;;;;;;;;;;;34.70;51.33;100773.10;106809;1263;22521;-50
2023/08/29 10:55:58;;;;;;;;;;;;;;;34.69;51.34;100769.70;106768;1261;24185;-51
2023/08/29 10:58:35;;;;;;;;;;;;;;;34.68;51.49;100771.58;106910;1267;22500;-51
2023/08/29 11:01:02;;;;;;;;;;;;;;;34.66;51.57;100778.84;106752;1272;24204;-51
2023/08/29 11:03:38;;;;;;;;;;;;;;;34.65;51.61;100780.27;106642;1270;24345;-51
2023/08/29 11:06:05;;;;;;;;;;;;;;;34.65;51.61;100784.92;106846;1268;23888;-51
2023/08/29 11:08:32;;;;;;;;;;;;;;;34.66;51.73;100783.94;106917;1259;25523;-50
2023/08/29 11:11:26;;;;;;;;;;;;;;;34.66;51.82;100783.94;106804;1256;25322;-50
2023/08/29 11:14:03;;;;;;;;;;;;;;;34.67;51.92;100785.63;106335;1264;24190;-49
2023/08/29 11:16:34;;;;;;;;;;;;;;;34.67;51.86;100784.66;106343;1271;25351;-53
2023/08/29 11:19:05;;;;;;;;;;;;;;;34.67;51.92;100785.17;106322;1265;25302;-50
2023/08/29 11:21:32;;;;;;;;;;;;;;;34.69;51.82;100780.24;106344;1266;25323;-50
2023/08/29 11:23:59;;;;;;;;;;;;;;;34.71;51.90;100774.11;106341;1265;23717;-49
2023/08/29 11:26:48;;;;;;;;;;;;;;;34.74;51.74;100773.02;106250;1274;25487;-53
2023/08/29 11:29:16;;;;;;;;;;;;;;;34.76;51.87;100772.02;106202;1278;25410;-54
2023/08/29 11:31:43;;;;;;;;;;;;;;;34.77;51.81;100770.14;106041;1266;24226;-51
2023/08/29 11:34:14;;;;;;;;;;;;;;;34.75;51.74;100773.58;106179;1265;25396;-53
2023/08/29 11:36:44;;;;;;;;;;;;;;;34.75;51.81;100775.41;106117;1274;23868;-53
2023/08/29 11:39:11;;;;;;;;;;;;;;;34.75;51.66;100778.23;106220;1265;24344;-54
2023/08/29 11:41:38;;;;;;;;;;;;;;;34.76;51.45;100772.84;106040;1265;25396;-51
2023/08/29 11:44:27;;;;;;;;;;;;;;;34.78;51.30;100771.88;106141;1265;25397;-55
2023/08/29 11:47:15;;;;;;;;;;;;;;;34.79;51.35;100772.14;106042;1264;25345;-52
2023/08/29 11:49:42;;;;;;;;;;;;;;;34.82;51.35;100773.84;106357;1265;25776;-51
2023/08/29 11:52:09;;;;;;;;;;;;;;;34.84;51.02;100775.45;106856;1265;25316;-50
2023/08/29 11:54:37;;;;;;;;;;;;;;;34.84;51.17;100769.58;106748;1259;25600;-51
2023/08/29 11:57:08;;;;;;;;;;;;;;;34.84;51.29;100766.38;106764;1268;25325;-51
2023/08/29 11:59:35;;;;;;;;;;;;;;;34.84;51.16;100767.54;106814;1256;25479;-51
2023/08/29 12:02:02;;;;;;;;;;;;;;;34.84;51.09;100769.41;106744;1270;25443;-51
2023/08/29 12:04:29;;;;;;;;;;;;;;;34.83;51.04;100768.39;106789;1259;24360;-52
2023/08/29 12:07:09;;;;;;;;;;;;;;;34.83;51.19;100771.55;106735;1267;25383;-51
2023/08/29 12:09:37;;;;;;;;;;;;;;;34.84;51.35;100772.61;106884;1259;25316;-51
2023/08/29 12:12:06;;;;;;;;;;;;;;;34.89;51.09;100770.80;106845;1272;25319;-52
2023/08/29 12:14:49;;;;;;;;;;;;;;;34.95;50.76;100770.22;106871;1260;22518;-51
2023/08/29 12:17:18;;;;;;;;;;;;;;;35.02;50.55;100771.15;106642;1278;25777;-51
2023/08/29 12:19:45;;;;;;;;;;;;;;;35.06;50.20;100768.85;106848;1270;25328;-56
2023/08/29 12:22:13;;;;;;;;;;;;;;;35.07;50.00;100765.93;106858;1266;25313;-52
2023/08/29 12:24:39;;;;;;;;;;;;;;;35.06;50.10;100767.75;106829;1267;22509;-51
2023/08/29 12:27:07;;;;;;;;;;;;;;;35.02;50.45;100765.03;106766;1259;25462;-52
2023/08/29 12:29:34;;;;;;;;;;;;;;;34.98;50.68;100765.30;106798;1267;22741;-50